sensor_id;sensor_type;location;lat;lon;timestamp;temperature;humidity
52211;DHT22;38179;52.756;6.906;2024-02-14T00:00:06;6.60;99.90
52211;DHT22;38179;52.756;6.906;2024-02-14T00:02:35;6.60;99.90
52211;DHT22;38179;52.756;6.906;2024-02-14T00:05:02;6.60;99.90
52211;DHT22;38179;52.756;6.906;2024-02-14T00:07:28;6.50;99.90
52211;DHT22;38179;52.756;6.906;2024-02-14T00:09:54;6.50;99.90
52211;DHT22;38179;52.756;6.906;2024-02-14T00:12:20;6.60;99.90
52211;DHT22;38179;52.756;6.906;2024-02-14T00:14:45;6.50;99.90
52211;DHT22;38179;52.756;6.906;2024-02-14T00:17:11;6.50;99.90
52211;DHT22;38179;52.756;6.906;2024-02-14T00:19:37;6.50;99.90
52211;DHT22;38179;52.756;6.906;2024-02-14T00:22:03;6.40;99.90
52211;DHT22;38179;52.756;6.906;2024-02-14T00:24:29;6.40;99.90
52211;DHT22;38179;52.756;6.906;2024-02-14T00:26:55;6.40;99.90
52211;DHT22;38179;52.756;6.906;2024-02-14T00:29:22;6.40;99.90
52211;DHT22;38179;52.756;6.906;2024-02-14T00:31:49;6.50;99.90
52211;DHT22;38179;52.756;6.906;2024-02-14T00:34:15;6.50;99.90
52211;DHT22;38179;52.756;6.906;2024-02-14T00:36:41;6.40;99.90
52211;DHT22;38179;52.756;6.906;2024-02-14T00:39:07;6.40;99.90
52211;DHT22;38179;52.756;6.906;2024-02-14T00:41:35;6.50;99.90
52211;DHT22;38179;52.756;6.906;2024-02-14T00:44:01;6.50;99.90
52211;DHT22;38179;52.756;6.906;2024-02-14T00:46:28;6.50;99.90
52211;DHT22;38179;52.756;6.906;2024-02-14T00:48:54;6.40;99.90
52211;DHT22;38179;52.756;6.906;2024-02-14T00:51:21;6.40;99.90
52211;DHT22;38179;52.756;6.906;2024-02-14T00:53:47;6.50;99.90
52211;DHT22;38179;52.756;6.906;2024-02-14T00:56:12;6.50;99.90
52211;DHT22;38179;52.756;6.906;2024-02-14T00:58:38;6.50;99.90
52211;DHT22;38179;52.756;6.906;2024-02-14T01:01:04;6.60;99.90
52211;DHT22;38179;52.756;6.906;2024-02-14T01:03:31;6.50;99.90
52211;DHT22;38179;52.756;6.906;2024-02-14T01:05:57;6.60;99.90
52211;DHT22;38179;52.756;6.906;2024-02-14T01:08:22;6.60;99.90
52211;DHT22;38179;52.756;6.906;2024-02-14T01:10:48;6.70;99.90
52211;DHT22;38179;52.756;6.906;2024-02-14T01:13:20;6.70;99.90
52211;DHT22;38179;52.756;6.906;2024-02-14T01:15:46;6.60;99.90
52211;DHT22;38179;52.756;6.906;2024-02-14T01:18:12;6.90;99.90
52211;DHT22;38179;52.756;6.906;2024-02-14T01:20:37;6.70;99.90
52211;DHT22;38179;52.756;6.906;2024-02-14T01:23:03;6.70;99.90
52211;DHT22;38179;52.756;6.906;2024-02-14T01:25:30;6.70;99.90
52211;DHT22;38179;52.756;6.906;2024-02-14T01:27:56;6.70;99.90
52211;DHT22;38179;52.756;6.906;2024-02-14T01:30:21;6.80;99.90
52211;DHT22;38179;52.756;6.906;2024-02-14T01:32:47;6.80;99.90
52211;DHT22;38179;52.756;6.906;2024-02-14T01:35:13;6.80;99.90
52211;DHT22;38179;52.756;6.906;2024-02-14T01:37:38;6.80;99.90
52211;DHT22;38179;52.756;6.906;2024-02-14T01:40:06;7.00;99.90
52211;DHT22;38179;52.756;6.906;2024-02-14T01:42:32;6.80;99.90
52211;DHT22;38179;52.756;6.906;2024-02-14T01:44:59;6.90;99.90
52211;DHT22;38179;52.756;6.906;2024-02-14T01:47:24;6.90;99.90
52211;DHT22;38179;52.756;6.906;2024-02-14T01:49:50;6.90;99.90
52211;DHT22;38179;52.756;6.906;2024-02-14T01:52:16;7.00;99.90
52211;DHT22;38179;52.756;6.906;2024-02-14T01:54:42;7.00;99.90
52211;DHT22;38179;52.756;6.906;2024-02-14T01:57:09;6.90;99.90
52211;DHT22;38179;52.756;6.906;2024-02-14T01:59:36;7.00;99.90
52211;DHT22;38179;52.756;6.906;2024-02-14T02:02:03;7.00;99.90
52211;DHT22;38179;52.756;6.906;2024-02-14T02:04:33;7.00;99.90
52211;DHT22;38179;52.756;6.906;2024-02-14T02:06:59;7.10;99.90
52211;DHT22;38179;52.756;6.906;2024-02-14T02:09:24;7.00;99.90
52211;DHT22;38179;52.756;6.906;2024-02-14T02:11:51;7.00;99.90
52211;DHT22;38179;52.756;6.906;2024-02-14T02:14:21;7.10;99.90
52211;DHT22;38179;52.756;6.906;2024-02-14T02:16:47;7.10;99.90
52211;DHT22;38179;52.756;6.906;2024-02-14T02:19:15;7.10;99.90
52211;DHT22;38179;52.756;6.906;2024-02-14T02:21:44;7.10;99.90
52211;DHT22;38179;52.756;6.906;2024-02-14T02:24:11;7.10;99.90
52211;DHT22;38179;52.756;6.906;2024-02-14T02:26:37;7.20;99.90
52211;DHT22;38179;52.756;6.906;2024-02-14T02:29:03;7.20;99.90
52211;DHT22;38179;52.756;6.906;2024-02-14T02:31:31;7.20;99.90
52211;DHT22;38179;52.756;6.906;2024-02-14T02:33:56;7.40;99.90
52211;DHT22;38179;52.756;6.906;2024-02-14T02:36:23;7.20;99.90
52211;DHT22;38179;52.756;6.906;2024-02-14T02:38:50;7.30;99.90
52211;DHT22;38179;52.756;6.906;2024-02-14T02:41:15;7.30;99.90
52211;DHT22;38179;52.756;6.906;2024-02-14T02:43:42;7.30;99.90
52211;DHT22;38179;52.756;6.906;2024-02-14T02:46:09;7.30;99.90
52211;DHT22;38179;52.756;6.906;2024-02-14T02:48:35;7.30;99.90
52211;DHT22;38179;52.756;6.906;2024-02-14T02:51:01;7.40;99.90
52211;DHT22;38179;52.756;6.906;2024-02-14T02:53:27;7.40;99.90
52211;DHT22;38179;52.756;6.906;2024-02-14T02:55:52;7.40;99.90
52211;DHT22;38179;52.756;6.906;2024-02-14T02:58:20;7.40;99.90
52211;DHT22;38179;52.756;6.906;2024-02-14T03:00:47;7.40;99.90
52211;DHT22;38179;52.756;6.906;2024-02-14T03:03:15;7.40;99.90
52211;DHT22;38179;52.756;6.906;2024-02-14T03:05:42;7.50;99.90
52211;DHT22;38179;52.756;6.906;2024-02-14T03:08:10;7.40;99.90
52211;DHT22;38179;52.756;6.906;2024-02-14T03:10:39;7.50;99.90
52211;DHT22;38179;52.756;6.906;2024-02-14T03:13:06;7.50;99.90
52211;DHT22;38179;52.756;6.906;2024-02-14T03:15:34;7.60;99.90
52211;DHT22;38179;52.756;6.906;2024-02-14T03:18:01;7.70;99.90
52211;DHT22;38179;52.756;6.906;2024-02-14T03:20:26;7.60;99.90
52211;DHT22;38179;52.756;6.906;2024-02-14T03:22:54;7.70;99.90
52211;DHT22;38179;52.756;6.906;2024-02-14T03:25:20;7.80;99.90
52211;DHT22;38179;52.756;6.906;2024-02-14T03:27:47;7.70;99.90
52211;DHT22;38179;52.756;6.906;2024-02-14T03:30:16;7.80;99.90
52211;DHT22;38179;52.756;6.906;2024-02-14T03:32:45;7.80;99.90
52211;DHT22;38179;52.756;6.906;2024-02-14T03:35:12;7.80;99.90
52211;DHT22;38179;52.756;6.906;2024-02-14T03:37:40;7.80;99.90
52211;DHT22;38179;52.756;6.906;2024-02-14T03:40:10;7.90;99.90
52211;DHT22;38179;52.756;6.906;2024-02-14T03:42:37;7.80;99.90
52211;DHT22;38179;52.756;6.906;2024-02-14T03:45:08;7.80;99.90
52211;DHT22;38179;52.756;6.906;2024-02-14T03:47:35;7.80;99.90
52211;DHT22;38179;52.756;6.906;2024-02-14T03:50:01;7.90;99.90
52211;DHT22;38179;52.756;6.906;2024-02-14T03:52:28;7.90;99.90
52211;DHT22;38179;52.756;6.906;2024-02-14T03:54:53;7.90;99.90
52211;DHT22;38179;52.756;6.906;2024-02-14T03:57:19;7.90;99.90
52211;DHT22;38179;52.756;6.906;2024-02-14T03:59:46;8.00;99.90
52211;DHT22;38179;52.756;6.906;2024-02-14T04:02:11;8.00;99.90
52211;DHT22;38179;52.756;6.906;2024-02-14T04:04:41;8.00;99.90
52211;DHT22;38179;52.756;6.906;2024-02-14T04:07:07;7.90;99.90
52211;DHT22;38179;52.756;6.906;2024-02-14T04:09:36;8.00;99.90
52211;DHT22;38179;52.756;6.906;2024-02-14T04:12:02;8.10;99.90
52211;DHT22;38179;52.756;6.906;2024-02-14T04:14:27;8.00;99.90
52211;DHT22;38179;52.756;6.906;2024-02-14T04:16:53;8.00;99.90
52211;DHT22;38179;52.756;6.906;2024-02-14T04:19:19;8.00;99.90
52211;DHT22;38179;52.756;6.906;2024-02-14T04:21:46;8.00;99.90
52211;DHT22;38179;52.756;6.906;2024-02-14T04:24:11;8.10;99.90
52211;DHT22;38179;52.756;6.906;2024-02-14T04:26:37;8.10;99.90
52211;DHT22;38179;52.756;6.906;2024-02-14T04:29:03;8.10;99.90
52211;DHT22;38179;52.756;6.906;2024-02-14T04:31:29;8.10;99.90
52211;DHT22;38179;52.756;6.906;2024-02-14T04:33:55;8.20;99.90
52211;DHT22;38179;52.756;6.906;2024-02-14T04:36:21;8.20;99.90
52211;DHT22;38179;52.756;6.906;2024-02-14T04:38:50;8.20;99.90
52211;DHT22;38179;52.756;6.906;2024-02-14T04:41:16;8.20;99.90
52211;DHT22;38179;52.756;6.906;2024-02-14T04:43:42;8.40;99.90
52211;DHT22;38179;52.756;6.906;2024-02-14T04:46:09;8.30;99.90
52211;DHT22;38179;52.756;6.906;2024-02-14T04:48:35;8.30;99.90
52211;DHT22;38179;52.756;6.906;2024-02-14T04:51:01;8.30;99.90
52211;DHT22;38179;52.756;6.906;2024-02-14T04:53:27;8.30;99.90
52211;DHT22;38179;52.756;6.906;2024-02-14T04:55:54;8.30;99.90
52211;DHT22;38179;52.756;6.906;2024-02-14T04:58:20;8.30;99.90
52211;DHT22;38179;52.756;6.906;2024-02-14T05:00:46;8.40;99.90
52211;DHT22;38179;52.756;6.906;2024-02-14T05:03:11;8.40;99.90
52211;DHT22;38179;52.756;6.906;2024-02-14T05:05:38;8.40;99.90
52211;DHT22;38179;52.756;6.906;2024-02-14T05:08:04;8.50;99.90
52211;DHT22;38179;52.756;6.906;2024-02-14T05:10:30;8.50;99.90
52211;DHT22;38179;52.756;6.906;2024-02-14T05:12:57;8.50;99.90
52211;DHT22;38179;52.756;6.906;2024-02-14T05:15:22;8.60;99.90
52211;DHT22;38179;52.756;6.906;2024-02-14T05:17:49;8.60;99.90
52211;DHT22;38179;52.756;6.906;2024-02-14T05:20:18;8.60;99.90
52211;DHT22;38179;52.756;6.906;2024-02-14T05:22:44;8.50;99.90
52211;DHT22;38179;52.756;6.906;2024-02-14T05:25:10;8.60;99.90
52211;DHT22;38179;52.756;6.906;2024-02-14T05:27:36;8.60;99.90
52211;DHT22;38179;52.756;6.906;2024-02-14T05:30:03;8.60;99.90
52211;DHT22;38179;52.756;6.906;2024-02-14T05:32:31;8.60;99.90
52211;DHT22;38179;52.756;6.906;2024-02-14T05:34:57;8.70;99.90
52211;DHT22;38179;52.756;6.906;2024-02-14T05:37:23;8.70;99.90
52211;DHT22;38179;52.756;6.906;2024-02-14T05:39:49;8.70;99.90
52211;DHT22;38179;52.756;6.906;2024-02-14T05:42:15;8.80;99.90
52211;DHT22;38179;52.756;6.906;2024-02-14T05:44:42;8.70;99.90
52211;DHT22;38179;52.756;6.906;2024-02-14T05:47:09;8.70;99.90
52211;DHT22;38179;52.756;6.906;2024-02-14T05:49:34;8.80;99.90
52211;DHT22;38179;52.756;6.906;2024-02-14T05:52:00;8.80;99.90
52211;DHT22;38179;52.756;6.906;2024-02-14T05:54:26;8.80;99.90
52211;DHT22;38179;52.756;6.906;2024-02-14T05:56:51;8.80;99.90
52211;DHT22;38179;52.756;6.906;2024-02-14T05:59:17;8.80;99.90
52211;DHT22;38179;52.756;6.906;2024-02-14T06:01:43;8.80;99.90
52211;DHT22;38179;52.756;6.906;2024-02-14T06:04:08;8.80;99.90
52211;DHT22;38179;52.756;6.906;2024-02-14T06:06:34;8.80;99.90
52211;DHT22;38179;52.756;6.906;2024-02-14T06:09:00;8.80;99.90
52211;DHT22;38179;52.756;6.906;2024-02-14T06:11:25;8.80;99.90
52211;DHT22;38179;52.756;6.906;2024-02-14T06:13:51;8.80;99.90
52211;DHT22;38179;52.756;6.906;2024-02-14T06:16:17;8.80;99.90
52211;DHT22;38179;52.756;6.906;2024-02-14T06:18:42;8.90;99.90
52211;DHT22;38179;52.756;6.906;2024-02-14T06:21:12;8.90;99.90
52211;DHT22;38179;52.756;6.906;2024-02-14T06:23:37;8.90;99.90
52211;DHT22;38179;52.756;6.906;2024-02-14T06:26:04;8.90;99.90
52211;DHT22;38179;52.756;6.906;2024-02-14T06:28:30;9.00;99.90
52211;DHT22;38179;52.756;6.906;2024-02-14T06:30:55;8.90;99.90
52211;DHT22;38179;52.756;6.906;2024-02-14T06:33:21;9.00;99.90
52211;DHT22;38179;52.756;6.906;2024-02-14T06:35:47;9.00;99.90
52211;DHT22;38179;52.756;6.906;2024-02-14T06:38:12;8.90;99.90
52211;DHT22;38179;52.756;6.906;2024-02-14T06:40:38;9.00;99.90
52211;DHT22;38179;52.756;6.906;2024-02-14T06:43:04;9.10;99.90
52211;DHT22;38179;52.756;6.906;2024-02-14T06:45:32;9.00;99.90
52211;DHT22;38179;52.756;6.906;2024-02-14T06:47:58;9.00;99.90
52211;DHT22;38179;52.756;6.906;2024-02-14T06:50:24;9.10;99.90
52211;DHT22;38179;52.756;6.906;2024-02-14T06:52:54;9.10;99.90
52211;DHT22;38179;52.756;6.906;2024-02-14T06:55:19;9.10;99.90
52211;DHT22;38179;52.756;6.906;2024-02-14T06:57:45;9.10;99.90
52211;DHT22;38179;52.756;6.906;2024-02-14T07:00:11;9.10;99.90
52211;DHT22;38179;52.756;6.906;2024-02-14T07:02:37;9.10;99.90
52211;DHT22;38179;52.756;6.906;2024-02-14T07:05:03;9.10;99.90
52211;DHT22;38179;52.756;6.906;2024-02-14T07:07:28;9.10;99.90
52211;DHT22;38179;52.756;6.906;2024-02-14T07:09:54;9.20;99.90
52211;DHT22;38179;52.756;6.906;2024-02-14T07:12:20;9.10;99.90
52211;DHT22;38179;52.756;6.906;2024-02-14T07:14:46;9.20;99.90
52211;DHT22;38179;52.756;6.906;2024-02-14T07:17:12;9.20;99.90
52211;DHT22;38179;52.756;6.906;2024-02-14T07:19:38;9.20;99.90
52211;DHT22;38179;52.756;6.906;2024-02-14T07:22:04;9.30;99.90
52211;DHT22;38179;52.756;6.906;2024-02-14T07:24:30;9.30;99.90
52211;DHT22;38179;52.756;6.906;2024-02-14T07:26:55;9.30;99.90
52211;DHT22;38179;52.756;6.906;2024-02-14T07:29:22;9.30;99.90
52211;DHT22;38179;52.756;6.906;2024-02-14T07:31:48;9.30;99.90
52211;DHT22;38179;52.756;6.906;2024-02-14T07:34:13;9.30;99.90
52211;DHT22;38179;52.756;6.906;2024-02-14T07:36:39;9.30;99.90
52211;DHT22;38179;52.756;6.906;2024-02-14T07:39:06;9.30;99.90
52211;DHT22;38179;52.756;6.906;2024-02-14T07:41:32;9.30;99.90
52211;DHT22;38179;52.756;6.906;2024-02-14T07:43:58;9.40;99.90
52211;DHT22;38179;52.756;6.906;2024-02-14T07:46:23;9.40;99.90
52211;DHT22;38179;52.756;6.906;2024-02-14T07:48:51;9.40;99.90
52211;DHT22;38179;52.756;6.906;2024-02-14T07:51:19;9.30;99.90
52211;DHT22;38179;52.756;6.906;2024-02-14T07:53:45;9.30;99.90
52211;DHT22;38179;52.756;6.906;2024-02-14T07:56:10;9.40;99.90
52211;DHT22;38179;52.756;6.906;2024-02-14T07:58:36;9.40;99.90
52211;DHT22;38179;52.756;6.906;2024-02-14T08:01:02;9.40;99.90
52211;DHT22;38179;52.756;6.906;2024-02-14T08:03:29;9.40;99.90
52211;DHT22;38179;52.756;6.906;2024-02-14T08:05:56;9.40;99.90
52211;DHT22;38179;52.756;6.906;2024-02-14T08:08:21;9.40;99.90
52211;DHT22;38179;52.756;6.906;2024-02-14T08:10:48;9.50;99.90
52211;DHT22;38179;52.756;6.906;2024-02-14T08:13:14;9.50;99.90
52211;DHT22;38179;52.756;6.906;2024-02-14T08:15:41;9.40;99.90
52211;DHT22;38179;52.756;6.906;2024-02-14T08:18:07;9.50;99.90
52211;DHT22;38179;52.756;6.906;2024-02-14T08:20:33;9.50;99.90
52211;DHT22;38179;52.756;6.906;2024-02-14T08:22:59;9.50;99.90
52211;DHT22;38179;52.756;6.906;2024-02-14T08:25:24;9.60;99.90
52211;DHT22;38179;52.756;6.906;2024-02-14T08:27:50;9.50;99.90
52211;DHT22;38179;52.756;6.906;2024-02-14T08:30:16;9.60;99.90
52211;DHT22;38179;52.756;6.906;2024-02-14T08:32:42;9.60;99.90
52211;DHT22;38179;52.756;6.906;2024-02-14T08:35:08;9.60;99.90
52211;DHT22;38179;52.756;6.906;2024-02-14T08:37:35;9.60;99.90
52211;DHT22;38179;52.756;6.906;2024-02-14T08:40:03;9.60;99.90
52211;DHT22;38179;52.756;6.906;2024-02-14T08:42:32;9.70;99.90
52211;DHT22;38179;52.756;6.906;2024-02-14T08:44:58;9.70;99.90
52211;DHT22;38179;52.756;6.906;2024-02-14T08:47:24;9.60;99.90
52211;DHT22;38179;52.756;6.906;2024-02-14T08:49:49;9.70;99.90
52211;DHT22;38179;52.756;6.906;2024-02-14T08:52:15;9.80;99.90
52211;DHT22;38179;52.756;6.906;2024-02-14T08:54:40;9.70;99.90
52211;DHT22;38179;52.756;6.906;2024-02-14T08:57:06;9.70;99.90
52211;DHT22;38179;52.756;6.906;2024-02-14T08:59:32;9.80;99.90
52211;DHT22;38179;52.756;6.906;2024-02-14T09:01:58;9.70;99.90
52211;DHT22;38179;52.756;6.906;2024-02-14T09:04:23;9.80;99.90
52211;DHT22;38179;52.756;6.906;2024-02-14T09:06:49;9.80;99.90
52211;DHT22;38179;52.756;6.906;2024-02-14T09:09:15;9.70;99.90
52211;DHT22;38179;52.756;6.906;2024-02-14T09:11:41;9.70;99.90
52211;DHT22;38179;52.756;6.906;2024-02-14T09:14:07;9.80;99.90
52211;DHT22;38179;52.756;6.906;2024-02-14T09:16:33;9.70;99.90
52211;DHT22;38179;52.756;6.906;2024-02-14T09:18:59;9.70;99.90
52211;DHT22;38179;52.756;6.906;2024-02-14T09:21:26;9.70;99.90
52211;DHT22;38179;52.756;6.906;2024-02-14T09:23:53;9.80;99.90
52211;DHT22;38179;52.756;6.906;2024-02-14T09:26:18;9.80;99.90
52211;DHT22;38179;52.756;6.906;2024-02-14T09:28:44;9.70;99.90
52211;DHT22;38179;52.756;6.906;2024-02-14T09:31:10;9.80;99.90
52211;DHT22;38179;52.756;6.906;2024-02-14T09:33:38;9.70;99.90
52211;DHT22;38179;52.756;6.906;2024-02-14T09:36:05;9.80;99.90
52211;DHT22;38179;52.756;6.906;2024-02-14T09:38:31;9.80;99.90
52211;DHT22;38179;52.756;6.906;2024-02-14T09:41:14;9.80;99.90
52211;DHT22;38179;52.756;6.906;2024-02-14T09:43:44;9.80;99.90
52211;DHT22;38179;52.756;6.906;2024-02-14T09:46:13;9.80;99.90
52211;DHT22;38179;52.756;6.906;2024-02-14T09:48:45;9.70;99.90
52211;DHT22;38179;52.756;6.906;2024-02-14T09:51:13;9.70;99.90
52211;DHT22;38179;52.756;6.906;2024-02-14T09:53:42;9.70;99.90
52211;DHT22;38179;52.756;6.906;2024-02-14T09:56:10;9.70;99.90
52211;DHT22;38179;52.756;6.906;2024-02-14T09:58:37;9.70;99.90
52211;DHT22;38179;52.756;6.906;2024-02-14T10:01:04;9.80;99.90
52211;DHT22;38179;52.756;6.906;2024-02-14T10:03:32;9.70;99.90
52211;DHT22;38179;52.756;6.906;2024-02-14T10:05:59;9.70;99.90
52211;DHT22;38179;52.756;6.906;2024-02-14T10:08:25;9.80;99.90
52211;DHT22;38179;52.756;6.906;2024-02-14T10:10:52;9.80;99.90
52211;DHT22;38179;52.756;6.906;2024-02-14T10:13:18;9.80;99.90
52211;DHT22;38179;52.756;6.906;2024-02-14T10:15:43;9.80;99.90
52211;DHT22;38179;52.756;6.906;2024-02-14T10:18:09;9.90;99.90
52211;DHT22;38179;52.756;6.906;2024-02-14T10:20:35;9.90;99.90
52211;DHT22;38179;52.756;6.906;2024-02-14T10:23:07;9.90;99.90
52211;DHT22;38179;52.756;6.906;2024-02-14T10:25:36;9.90;99.90
52211;DHT22;38179;52.756;6.906;2024-02-14T10:28:06;9.90;99.90
52211;DHT22;38179;52.756;6.906;2024-02-14T10:30:37;9.90;99.90
52211;DHT22;38179;52.756;6.906;2024-02-14T10:33:06;10.00;99.90
52211;DHT22;38179;52.756;6.906;2024-02-14T10:35:35;10.00;99.90
52211;DHT22;38179;52.756;6.906;2024-02-14T10:38:03;10.00;99.90
52211;DHT22;38179;52.756;6.906;2024-02-14T10:40:32;10.00;99.90
52211;DHT22;38179;52.756;6.906;2024-02-14T10:42:57;10.00;99.90
52211;DHT22;38179;52.756;6.906;2024-02-14T10:45:25;10.10;99.90
52211;DHT22;38179;52.756;6.906;2024-02-14T10:47:53;10.10;99.90
52211;DHT22;38179;52.756;6.906;2024-02-14T10:50:21;10.10;99.90
52211;DHT22;38179;52.756;6.906;2024-02-14T10:52:48;10.10;99.90
52211;DHT22;38179;52.756;6.906;2024-02-14T10:55:16;10.10;99.90
52211;DHT22;38179;52.756;6.906;2024-02-14T10:57:45;10.10;99.90
52211;DHT22;38179;52.756;6.906;2024-02-14T11:00:14;10.20;99.90
52211;DHT22;38179;52.756;6.906;2024-02-14T11:02:41;10.10;99.90
52211;DHT22;38179;52.756;6.906;2024-02-14T11:05:14;10.10;99.90
52211;DHT22;38179;52.756;6.906;2024-02-14T11:07:46;10.10;99.90
52211;DHT22;38179;52.756;6.906;2024-02-14T11:10:16;10.20;99.90
52211;DHT22;38179;52.756;6.906;2024-02-14T11:12:42;10.20;99.90
52211;DHT22;38179;52.756;6.906;2024-02-14T11:15:36;10.20;99.90
52211;DHT22;38179;52.756;6.906;2024-02-14T11:18:06;10.20;99.90
52211;DHT22;38179;52.756;6.906;2024-02-14T11:20:35;10.20;99.90
52211;DHT22;38179;52.756;6.906;2024-02-14T11:23:03;10.20;99.90
52211;DHT22;38179;52.756;6.906;2024-02-14T11:25:30;10.30;99.90
52211;DHT22;38179;52.756;6.906;2024-02-14T11:28:16;10.30;99.90
52211;DHT22;38179;52.756;6.906;2024-02-14T11:30:48;10.30;99.90
52211;DHT22;38179;52.756;6.906;2024-02-14T11:35:48;10.30;99.90
52211;DHT22;38179;52.756;6.906;2024-02-14T11:38:19;10.30;99.90
52211;DHT22;38179;52.756;6.906;2024-02-14T11:40:45;10.30;99.90
52211;DHT22;38179;52.756;6.906;2024-02-14T11:43:16;10.30;99.90
52211;DHT22;38179;52.756;6.906;2024-02-14T11:45:43;10.40;99.90
52211;DHT22;38179;52.756;6.906;2024-02-14T11:48:12;10.40;99.90
52211;DHT22;38179;52.756;6.906;2024-02-14T11:50:42;10.50;99.90
52211;DHT22;38179;52.756;6.906;2024-02-14T11:53:12;10.50;99.90
52211;DHT22;38179;52.756;6.906;2024-02-14T11:55:40;10.50;99.90
52211;DHT22;38179;52.756;6.906;2024-02-14T11:58:13;10.50;99.90
52211;DHT22;38179;52.756;6.906;2024-02-14T12:00:41;10.50;99.90
52211;DHT22;38179;52.756;6.906;2024-02-14T12:03:10;10.60;99.90
52211;DHT22;38179;52.756;6.906;2024-02-14T12:05:37;10.60;99.90
52211;DHT22;38179;52.756;6.906;2024-02-14T12:08:05;10.60;99.90
52211;DHT22;38179;52.756;6.906;2024-02-14T12:10:32;10.60;99.90
52211;DHT22;38179;52.756;6.906;2024-02-14T12:12:58;10.60;99.90
52211;DHT22;38179;52.756;6.906;2024-02-14T12:15:26;10.70;99.90
52211;DHT22;38179;52.756;6.906;2024-02-14T12:17:55;10.60;99.90
52211;DHT22;38179;52.756;6.906;2024-02-14T12:20:22;10.70;99.90
52211;DHT22;38179;52.756;6.906;2024-02-14T12:22:51;10.70;99.90
52211;DHT22;38179;52.756;6.906;2024-02-14T12:25:17;10.70;99.90
52211;DHT22;38179;52.756;6.906;2024-02-14T12:27:50;10.70;99.90
52211;DHT22;38179;52.756;6.906;2024-02-14T12:30:17;10.80;99.90
52211;DHT22;38179;52.756;6.906;2024-02-14T12:32:43;10.80;99.90
52211;DHT22;38179;52.756;6.906;2024-02-14T12:35:09;10.70;99.90
52211;DHT22;38179;52.756;6.906;2024-02-14T12:37:35;10.80;99.90
52211;DHT22;38179;52.756;6.906;2024-02-14T12:40:01;10.80;99.90
52211;DHT22;38179;52.756;6.906;2024-02-14T12:42:27;10.80;99.90
52211;DHT22;38179;52.756;6.906;2024-02-14T12:44:54;10.80;99.90
52211;DHT22;38179;52.756;6.906;2024-02-14T12:47:20;10.80;99.90
52211;DHT22;38179;52.756;6.906;2024-02-14T12:49:47;10.80;99.90
52211;DHT22;38179;52.756;6.906;2024-02-14T12:52:14;10.70;99.90
52211;DHT22;38179;52.756;6.906;2024-02-14T12:54:39;10.80;99.90
52211;DHT22;38179;52.756;6.906;2024-02-14T12:57:08;10.70;99.90
52211;DHT22;38179;52.756;6.906;2024-02-14T12:59:34;10.80;99.90
52211;DHT22;38179;52.756;6.906;2024-02-14T13:01:59;10.80;99.90
52211;DHT22;38179;52.756;6.906;2024-02-14T13:04:26;10.80;99.90
52211;DHT22;38179;52.756;6.906;2024-02-14T13:06:51;10.80;99.90
52211;DHT22;38179;52.756;6.906;2024-02-14T13:09:17;10.90;99.90
52211;DHT22;38179;52.756;6.906;2024-02-14T13:11:43;10.80;99.90
52211;DHT22;38179;52.756;6.906;2024-02-14T13:14:09;10.80;99.90
52211;DHT22;38179;52.756;6.906;2024-02-14T13:16:34;10.80;99.90
52211;DHT22;38179;52.756;6.906;2024-02-14T13:19:00;10.80;99.90
52211;DHT22;38179;52.756;6.906;2024-02-14T13:21:26;10.80;99.90
52211;DHT22;38179;52.756;6.906;2024-02-14T13:23:52;10.80;99.90
52211;DHT22;38179;52.756;6.906;2024-02-14T13:26:17;10.80;99.90
52211;DHT22;38179;52.756;6.906;2024-02-14T13:28:43;10.70;99.90
52211;DHT22;38179;52.756;6.906;2024-02-14T13:31:09;10.70;99.90
52211;DHT22;38179;52.756;6.906;2024-02-14T13:33:36;10.70;99.90
52211;DHT22;38179;52.756;6.906;2024-02-14T13:36:01;10.70;99.90
52211;DHT22;38179;52.756;6.906;2024-02-14T13:38:27;10.60;99.90
52211;DHT22;38179;52.756;6.906;2024-02-14T13:40:54;10.60;99.90
52211;DHT22;38179;52.756;6.906;2024-02-14T13:43:19;10.70;99.90
52211;DHT22;38179;52.756;6.906;2024-02-14T13:45:46;10.60;99.90
52211;DHT22;38179;52.756;6.906;2024-02-14T13:48:13;10.60;99.90
52211;DHT22;38179;52.756;6.906;2024-02-14T13:50:39;10.70;99.90
52211;DHT22;38179;52.756;6.906;2024-02-14T13:53:06;10.70;99.90
52211;DHT22;38179;52.756;6.906;2024-02-14T13:55:32;10.70;99.90
52211;DHT22;38179;52.756;6.906;2024-02-14T13:57:57;10.70;99.90
52211;DHT22;38179;52.756;6.906;2024-02-14T14:00:23;10.70;99.90
52211;DHT22;38179;52.756;6.906;2024-02-14T14:02:49;10.70;99.90
52211;DHT22;38179;52.756;6.906;2024-02-14T14:05:14;10.70;99.90
52211;DHT22;38179;52.756;6.906;2024-02-14T14:07:41;10.70;99.90
52211;DHT22;38179;52.756;6.906;2024-02-14T14:10:10;10.70;99.90
52211;DHT22;38179;52.756;6.906;2024-02-14T14:12:36;10.80;99.90
52211;DHT22;38179;52.756;6.906;2024-02-14T14:15:03;10.80;99.90
52211;DHT22;38179;52.756;6.906;2024-02-14T14:17:29;10.80;99.90
52211;DHT22;38179;52.756;6.906;2024-02-14T14:19:55;10.80;99.90
52211;DHT22;38179;52.756;6.906;2024-02-14T14:22:20;10.80;99.90
52211;DHT22;38179;52.756;6.906;2024-02-14T14:24:47;10.80;99.90
52211;DHT22;38179;52.756;6.906;2024-02-14T14:27:12;10.80;99.90
52211;DHT22;38179;52.756;6.906;2024-02-14T14:29:41;10.80;99.90
52211;DHT22;38179;52.756;6.906;2024-02-14T14:32:07;10.80;99.90
52211;DHT22;38179;52.756;6.906;2024-02-14T14:34:33;10.80;99.90
52211;DHT22;38179;52.756;6.906;2024-02-14T14:36:59;10.80;99.90
52211;DHT22;38179;52.756;6.906;2024-02-14T14:39:25;10.80;99.90
52211;DHT22;38179;52.756;6.906;2024-02-14T14:41:51;10.80;99.90
52211;DHT22;38179;52.756;6.906;2024-02-14T14:44:18;10.80;99.90
52211;DHT22;38179;52.756;6.906;2024-02-14T14:46:44;10.80;99.90
52211;DHT22;38179;52.756;6.906;2024-02-14T14:49:10;10.80;99.90
52211;DHT22;38179;52.756;6.906;2024-02-14T14:51:37;10.70;99.90
52211;DHT22;38179;52.756;6.906;2024-02-14T14:54:04;10.80;99.90
52211;DHT22;38179;52.756;6.906;2024-02-14T14:56:30;10.80;99.90
52211;DHT22;38179;52.756;6.906;2024-02-14T14:58:56;10.80;99.90
52211;DHT22;38179;52.756;6.906;2024-02-14T15:01:25;10.80;99.90
52211;DHT22;38179;52.756;6.906;2024-02-14T15:03:51;10.80;99.90
52211;DHT22;38179;52.756;6.906;2024-02-14T15:06:18;10.80;99.90
52211;DHT22;38179;52.756;6.906;2024-02-14T15:08:44;10.80;99.90
52211;DHT22;38179;52.756;6.906;2024-02-14T15:11:11;10.80;99.90
52211;DHT22;38179;52.756;6.906;2024-02-14T15:13:40;10.80;99.90
52211;DHT22;38179;52.756;6.906;2024-02-14T15:16:06;10.80;99.90
52211;DHT22;38179;52.756;6.906;2024-02-14T15:18:34;10.80;99.90
52211;DHT22;38179;52.756;6.906;2024-02-14T15:21:00;10.80;99.90
52211;DHT22;38179;52.756;6.906;2024-02-14T15:23:28;10.80;99.90
52211;DHT22;38179;52.756;6.906;2024-02-14T15:25:54;10.80;99.90
52211;DHT22;38179;52.756;6.906;2024-02-14T15:28:29;10.90;99.90
52211;DHT22;38179;52.756;6.906;2024-02-14T15:30:56;10.90;99.90
52211;DHT22;38179;52.756;6.906;2024-02-14T15:33:40;10.90;99.90
52211;DHT22;38179;52.756;6.906;2024-02-14T15:36:06;10.90;99.90
52211;DHT22;38179;52.756;6.906;2024-02-14T15:38:32;10.90;99.90